sensor_id;sensor_type;location;lat;lon;timestamp;P1;durP1;ratioP1;P2;durP2;ratioP2
21671;SDS011;10997;52.242;8.168;2022-08-19T00:04:37;16.60;;;10.68;;
21671;SDS011;10997;52.242;8.168;2022-08-19T00:09:37;14.93;;;11.30;;
21671;SDS011;10997;52.242;8.168;2022-08-19T00:14:38;14.15;;;9.93;;
21671;SDS011;10997;52.242;8.168;2022-08-19T00:19:40;13.50;;;10.30;;
21671;SDS011;10997;52.242;8.168;2022-08-19T00:24:41;15.27;;;9.93;;
21671;SDS011;10997;52.242;8.168;2022-08-19T00:29:43;15.10;;;11.32;;
21671;SDS011;10997;52.242;8.168;2022-08-19T00:34:44;16.40;;;11.30;;
21671;SDS011;10997;52.242;8.168;2022-08-19T00:39:44;15.05;;;11.65;;
21671;SDS011;10997;52.242;8.168;2022-08-19T00:44:46;15.15;;;10.02;;
21671;SDS011;10997;52.242;8.168;2022-08-19T00:49:48;13.75;;;10.05;;
21671;SDS011;10997;52.242;8.168;2022-08-19T00:54:51;14.27;;;10.15;;
21671;SDS011;10997;52.242;8.168;2022-08-19T00:59:54;15.85;;;10.20;;
21671;SDS011;10997;52.242;8.168;2022-08-19T01:04:56;12.15;;;9.77;;
21671;SDS011;10997;52.242;8.168;2022-08-19T01:09:57;10.73;;;9.07;;
21671;SDS011;10997;52.242;8.168;2022-08-19T01:14:59;9.85;;;8.82;;
21671;SDS011;10997;52.242;8.168;2022-08-19T01:20:00;9.00;;;7.07;;
21671;SDS011;10997;52.242;8.168;2022-08-19T01:25:01;9.45;;;8.55;;
21671;SDS011;10997;52.242;8.168;2022-08-19T01:30:03;10.90;;;9.10;;
21671;SDS011;10997;52.242;8.168;2022-08-19T01:35:05;11.40;;;9.82;;
21671;SDS011;10997;52.242;8.168;2022-08-19T01:40:07;14.32;;;11.32;;
21671;SDS011;10997;52.242;8.168;2022-08-19T01:45:08;13.82;;;11.10;;
21671;SDS011;10997;52.242;8.168;2022-08-19T01:50:10;10.30;;;8.90;;
21671;SDS011;10997;52.242;8.168;2022-08-19T01:55:13;14.30;;;10.23;;
21671;SDS011;10997;52.242;8.168;2022-08-19T02:00:17;13.55;;;12.15;;
21671;SDS011;10997;52.242;8.168;2022-08-19T02:05:20;15.30;;;11.45;;
21671;SDS011;10997;52.242;8.168;2022-08-19T02:10:21;13.07;;;11.05;;
21671;SDS011;10997;52.242;8.168;2022-08-19T02:15:23;7.35;;;6.65;;
21671;SDS011;10997;52.242;8.168;2022-08-19T02:20:25;12.70;;;10.73;;
21671;SDS011;10997;52.242;8.168;2022-08-19T02:25:26;12.48;;;10.68;;
21671;SDS011;10997;52.242;8.168;2022-08-19T02:30:27;14.23;;;10.77;;
21671;SDS011;10997;52.242;8.168;2022-08-19T02:35:28;15.63;;;12.73;;
21671;SDS011;10997;52.242;8.168;2022-08-19T02:40:29;17.63;;;13.43;;
21671;SDS011;10997;52.242;8.168;2022-08-19T02:45:35;17.67;;;14.30;;
21671;SDS011;10997;52.242;8.168;2022-08-19T02:50:37;19.55;;;14.98;;
21671;SDS011;10997;52.242;8.168;2022-08-19T02:55:42;22.95;;;15.77;;
21671;SDS011;10997;52.242;8.168;2022-08-19T03:00:48;20.17;;;15.52;;
21671;SDS011;10997;52.242;8.168;2022-08-19T03:05:50;19.95;;;15.88;;
21671;SDS011;10997;52.242;8.168;2022-08-19T03:10:51;22.45;;;15.75;;
21671;SDS011;10997;52.242;8.168;2022-08-19T03:15:52;23.02;;;17.25;;
21671;SDS011;10997;52.242;8.168;2022-08-19T03:20:56;22.02;;;15.98;;
21671;SDS011;10997;52.242;8.168;2022-08-19T03:25:57;21.90;;;15.98;;
21671;SDS011;10997;52.242;8.168;2022-08-19T03:30:58;24.45;;;15.35;;
21671;SDS011;10997;52.242;8.168;2022-08-19T03:36:06;25.27;;;16.65;;
21671;SDS011;10997;52.242;8.168;2022-08-19T03:41:13;24.65;;;16.35;;
21671;SDS011;10997;52.242;8.168;2022-08-19T03:46:17;20.25;;;15.32;;
21671;SDS011;10997;52.242;8.168;2022-08-19T03:51:32;20.55;;;16.02;;
21671;SDS011;10997;52.242;8.168;2022-08-19T03:56:35;16.58;;;13.45;;
21671;SDS011;10997;52.242;8.168;2022-08-19T04:01:43;19.35;;;14.15;;
21671;SDS011;10997;52.242;8.168;2022-08-19T04:06:44;18.38;;;13.50;;
21671;SDS011;10997;52.242;8.168;2022-08-19T04:11:48;18.77;;;15.02;;
21671;SDS011;10997;52.242;8.168;2022-08-19T04:16:50;20.52;;;14.60;;
21671;SDS011;10997;52.242;8.168;2022-08-19T04:21:52;17.15;;;14.18;;
21671;SDS011;10997;52.242;8.168;2022-08-19T04:26:54;17.75;;;14.13;;
21671;SDS011;10997;52.242;8.168;2022-08-19T04:31:55;19.58;;;14.50;;
21671;SDS011;10997;52.242;8.168;2022-08-19T04:36:59;16.55;;;13.05;;
21671;SDS011;10997;52.242;8.168;2022-08-19T04:42:00;16.92;;;13.75;;
21671;SDS011;10997;52.242;8.168;2022-08-19T04:47:19;18.85;;;13.85;;
21671;SDS011;10997;52.242;8.168;2022-08-19T04:52:20;18.50;;;13.05;;
21671;SDS011;10997;52.242;8.168;2022-08-19T04:57:24;14.25;;;11.35;;
21671;SDS011;10997;52.242;8.168;2022-08-19T05:02:26;18.98;;;15.27;;
21671;SDS011;10997;52.242;8.168;2022-08-19T05:07:26;23.27;;;15.05;;
21671;SDS011;10997;52.242;8.168;2022-08-19T05:12:27;21.27;;;15.65;;
21671;SDS011;10997;52.242;8.168;2022-08-19T05:17:28;24.75;;;17.90;;
21671;SDS011;10997;52.242;8.168;2022-08-19T05:22:29;23.90;;;18.17;;
21671;SDS011;10997;52.242;8.168;2022-08-19T05:27:34;27.20;;;18.80;;
21671;SDS011;10997;52.242;8.168;2022-08-19T05:32:35;27.97;;;20.73;;
21671;SDS011;10997;52.242;8.168;2022-08-19T05:37:36;27.95;;;20.88;;
21671;SDS011;10997;52.242;8.168;2022-08-19T05:42:37;29.58;;;21.67;;
21671;SDS011;10997;52.242;8.168;2022-08-19T05:47:37;27.85;;;20.90;;
21671;SDS011;10997;52.242;8.168;2022-08-19T05:52:38;30.33;;;20.85;;
21671;SDS011;10997;52.242;8.168;2022-08-19T05:57:39;28.50;;;20.77;;
21671;SDS011;10997;52.242;8.168;2022-08-19T06:02:40;27.95;;;20.27;;
21671;SDS011;10997;52.242;8.168;2022-08-19T06:07:41;27.27;;;20.90;;
21671;SDS011;10997;52.242;8.168;2022-08-19T06:12:41;30.95;;;20.60;;
21671;SDS011;10997;52.242;8.168;2022-08-19T06:17:42;29.73;;;20.83;;
21671;SDS011;10997;52.242;8.168;2022-08-19T06:22:45;27.25;;;20.60;;
21671;SDS011;10997;52.242;8.168;2022-08-19T06:27:48;23.50;;;17.67;;
21671;SDS011;10997;52.242;8.168;2022-08-19T06:32:49;27.80;;;16.75;;
21671;SDS011;10997;52.242;8.168;2022-08-19T06:37:49;21.73;;;15.73;;
21671;SDS011;10997;52.242;8.168;2022-08-19T06:42:50;23.25;;;16.50;;
21671;SDS011;10997;52.242;8.168;2022-08-19T06:47:52;20.00;;;16.10;;
21671;SDS011;10997;52.242;8.168;2022-08-19T06:52:55;24.33;;;15.65;;
21671;SDS011;10997;52.242;8.168;2022-08-19T06:57:56;20.30;;;13.98;;
21671;SDS011;10997;52.242;8.168;2022-08-19T07:02:57;15.32;;;12.80;;
21671;SDS011;10997;52.242;8.168;2022-08-19T07:07:58;12.38;;;10.63;;
21671;SDS011;10997;52.242;8.168;2022-08-19T07:12:59;15.43;;;10.80;;
21671;SDS011;10997;52.242;8.168;2022-08-19T07:18:00;13.80;;;8.95;;
21671;SDS011;10997;52.242;8.168;2022-08-19T07:23:00;12.85;;;8.40;;
21671;SDS011;10997;52.242;8.168;2022-08-19T07:28:01;15.82;;;8.45;;
21671;SDS011;10997;52.242;8.168;2022-08-19T07:33:02;11.43;;;8.30;;
21671;SDS011;10997;52.242;8.168;2022-08-19T07:38:03;12.35;;;8.25;;
21671;SDS011;10997;52.242;8.168;2022-08-19T07:43:04;12.68;;;8.85;;
21671;SDS011;10997;52.242;8.168;2022-08-19T07:48:04;10.05;;;7.97;;
21671;SDS011;10997;52.242;8.168;2022-08-19T07:53:06;13.05;;;8.68;;
21671;SDS011;10997;52.242;8.168;2022-08-19T07:58:07;9.45;;;7.28;;
21671;SDS011;10997;52.242;8.168;2022-08-19T08:03:07;11.88;;;7.93;;
21671;SDS011;10997;52.242;8.168;2022-08-19T08:08:08;10.40;;;7.15;;
21671;SDS011;10997;52.242;8.168;2022-08-19T08:13:42;8.15;;;6.03;;
21671;SDS011;10997;52.242;8.168;2022-08-19T08:18:42;10.32;;;6.72;;
21671;SDS011;10997;52.242;8.168;2022-08-19T08:23:43;11.88;;;6.85;;
21671;SDS011;10997;52.242;8.168;2022-08-19T08:28:44;8.95;;;6.00;;
21671;SDS011;10997;52.242;8.168;2022-08-19T08:33:48;11.48;;;5.85;;
21671;SDS011;10997;52.242;8.168;2022-08-19T08:38:48;10.55;;;5.78;;
21671;SDS011;10997;52.242;8.168;2022-08-19T08:43:50;5.65;;;4.85;;
21671;SDS011;10997;52.242;8.168;2022-08-19T08:48:56;10.95;;;5.70;;
21671;SDS011;10997;52.242;8.168;2022-08-19T08:54:10;8.32;;;6.15;;
21671;SDS011;10997;52.242;8.168;2022-08-19T08:59:19;9.37;;;6.53;;
21671;SDS011;10997;52.242;8.168;2022-08-19T09:04:27;8.20;;;6.00;;
21671;SDS011;10997;52.242;8.168;2022-08-19T09:09:30;9.95;;;6.38;;
21671;SDS011;10997;52.242;8.168;2022-08-19T09:19:49;7.13;;;6.07;;
21671;SDS011;10997;52.242;8.168;2022-08-19T09:24:58;10.27;;;5.10;;
21671;SDS011;10997;52.242;8.168;2022-08-19T09:29:59;5.28;;;4.28;;
21671;SDS011;10997;52.242;8.168;2022-08-19T09:35:00;5.60;;;4.65;;
21671;SDS011;10997;52.242;8.168;2022-08-19T09:40:02;9.38;;;3.33;;
21671;SDS011;10997;52.242;8.168;2022-08-19T09:45:04;6.90;;;3.20;;
21671;SDS011;10997;52.242;8.168;2022-08-19T09:50:05;5.32;;;2.75;;
21671;SDS011;10997;52.242;8.168;2022-08-19T09:55:09;6.32;;;3.10;;
21671;SDS011;10997;52.242;8.168;2022-08-19T10:00:10;6.38;;;3.05;;
21671;SDS011;10997;52.242;8.168;2022-08-19T10:05:11;7.97;;;3.20;;
21671;SDS011;10997;52.242;8.168;2022-08-19T10:10:34;4.97;;;3.30;;
21671;SDS011;10997;52.242;8.168;2022-08-19T10:15:36;5.35;;;2.97;;
21671;SDS011;10997;52.242;8.168;2022-08-19T10:20:39;6.03;;;3.08;;
21671;SDS011;10997;52.242;8.168;2022-08-19T10:25:41;6.13;;;2.47;;
21671;SDS011;10997;52.242;8.168;2022-08-19T10:30:42;5.00;;;2.97;;
21671;SDS011;10997;52.242;8.168;2022-08-19T10:35:43;3.45;;;2.60;;
21671;SDS011;10997;52.242;8.168;2022-08-19T10:40:44;4.95;;;2.83;;
21671;SDS011;10997;52.242;8.168;2022-08-19T10:45:51;5.03;;;2.83;;
21671;SDS011;10997;52.242;8.168;2022-08-19T10:50:56;4.80;;;2.80;;
21671;SDS011;10997;52.242;8.168;2022-08-19T10:56:17;5.82;;;4.20;;
21671;SDS011;10997;52.242;8.168;2022-08-19T11:01:37;5.68;;;3.17;;
21671;SDS011;10997;52.242;8.168;2022-08-19T11:06:38;6.07;;;3.33;;
21671;SDS011;10997;52.242;8.168;2022-08-19T11:11:41;3.70;;;3.00;;
21671;SDS011;10997;52.242;8.168;2022-08-19T11:16:42;4.75;;;3.50;;
21671;SDS011;10997;52.242;8.168;2022-08-19T11:21:43;5.40;;;2.80;;
21671;SDS011;10997;52.242;8.168;2022-08-19T11:26:48;4.47;;;2.70;;
21671;SDS011;10997;52.242;8.168;2022-08-19T11:31:50;5.13;;;3.10;;
21671;SDS011;10997;52.242;8.168;2022-08-19T11:36:51;4.90;;;3.20;;
21671;SDS011;10997;52.242;8.168;2022-08-19T11:41:52;4.18;;;2.75;;
21671;SDS011;10997;52.242;8.168;2022-08-19T11:46:53;4.82;;;2.78;;
21671;SDS011;10997;52.242;8.168;2022-08-19T11:51:54;4.22;;;2.50;;
21671;SDS011;10997;52.242;8.168;2022-08-19T11:56:55;2.53;;;2.33;;
21671;SDS011;10997;52.242;8.168;2022-08-19T12:01:56;3.50;;;2.70;;
21671;SDS011;10997;52.242;8.168;2022-08-19T12:06:57;4.10;;;2.78;;
21671;SDS011;10997;52.242;8.168;2022-08-19T12:11:58;3.67;;;2.60;;
21671;SDS011;10997;52.242;8.168;2022-08-19T12:16:59;2.97;;;2.50;;
21671;SDS011;10997;52.242;8.168;2022-08-19T12:22:00;4.07;;;2.50;;
21671;SDS011;10997;52.242;8.168;2022-08-19T12:27:02;3.53;;;2.30;;
21671;SDS011;10997;52.242;8.168;2022-08-19T12:32:03;2.72;;;2.10;;
21671;SDS011;10997;52.242;8.168;2022-08-19T12:37:05;3.72;;;2.85;;
21671;SDS011;10997;52.242;8.168;2022-08-19T12:42:06;2.60;;;2.38;;
21671;SDS011;10997;52.242;8.168;2022-08-19T12:47:09;2.92;;;2.70;;
21671;SDS011;10997;52.242;8.168;2022-08-19T12:52:11;4.63;;;2.40;;
21671;SDS011;10997;52.242;8.168;2022-08-19T12:57:16;3.45;;;2.40;;
21671;SDS011;10997;52.242;8.168;2022-08-19T13:02:16;3.25;;;2.30;;
21671;SDS011;10997;52.242;8.168;2022-08-19T13:07:17;4.65;;;2.58;;
21671;SDS011;10997;52.242;8.168;2022-08-19T13:12:18;3.58;;;2.30;;
21671;SDS011;10997;52.242;8.168;2022-08-19T13:17:20;3.40;;;2.53;;
21671;SDS011;10997;52.242;8.168;2022-08-19T13:22:21;3.17;;;2.42;;
21671;SDS011;10997;52.242;8.168;2022-08-19T13:27:21;4.90;;;2.70;;
21671;SDS011;10997;52.242;8.168;2022-08-19T13:32:22;4.18;;;2.50;;
21671;SDS011;10997;52.242;8.168;2022-08-19T13:37:41;3.55;;;2.88;;
21671;SDS011;10997;52.242;8.168;2022-08-19T13:42:43;4.60;;;2.63;;
21671;SDS011;10997;52.242;8.168;2022-08-19T13:47:46;3.90;;;2.42;;
21671;SDS011;10997;52.242;8.168;2022-08-19T13:52:48;4.38;;;2.75;;
21671;SDS011;10997;52.242;8.168;2022-08-19T13:57:56;2.80;;;2.60;;
21671;SDS011;10997;52.242;8.168;2022-08-19T14:02:58;4.05;;;2.67;;
21671;SDS011;10997;52.242;8.168;2022-08-19T14:07:59;3.70;;;2.60;;
21671;SDS011;10997;52.242;8.168;2022-08-19T14:13:01;2.90;;;2.60;;
21671;SDS011;10997;52.242;8.168;2022-08-19T14:18:03;2.97;;;2.63;;
21671;SDS011;10997;52.242;8.168;2022-08-19T14:23:04;3.65;;;2.60;;
21671;SDS011;10997;52.242;8.168;2022-08-19T14:28:07;2.70;;;2.50;;
21671;SDS011;10997;52.242;8.168;2022-08-19T14:33:08;4.00;;;2.80;;
21671;SDS011;10997;52.242;8.168;2022-08-19T14:38:14;3.40;;;2.58;;
21671;SDS011;10997;52.242;8.168;2022-08-19T14:43:17;4.53;;;2.50;;
21671;SDS011;10997;52.242;8.168;2022-08-19T14:48:18;4.15;;;2.70;;
21671;SDS011;10997;52.242;8.168;2022-08-19T14:53:21;4.32;;;2.53;;
21671;SDS011;10997;52.242;8.168;2022-08-19T14:58:22;3.58;;;3.13;;
21671;SDS011;10997;52.242;8.168;2022-08-19T15:03:22;5.25;;;2.95;;
21671;SDS011;10997;52.242;8.168;2022-08-19T15:08:24;3.47;;;2.88;;
21671;SDS011;10997;52.242;8.168;2022-08-19T15:13:26;4.90;;;2.90;;
21671;SDS011;10997;52.242;8.168;2022-08-19T15:18:27;3.65;;;3.08;;
21671;SDS011;10997;52.242;8.168;2022-08-19T15:23:28;3.95;;;2.55;;
21671;SDS011;10997;52.242;8.168;2022-08-19T15:28:30;5.15;;;2.78;;
21671;SDS011;10997;52.242;8.168;2022-08-19T15:33:32;5.47;;;3.17;;
21671;SDS011;10997;52.242;8.168;2022-08-19T15:38:37;4.78;;;3.47;;
21671;SDS011;10997;52.242;8.168;2022-08-19T15:43:40;6.30;;;3.42;;
21671;SDS011;10997;52.242;8.168;2022-08-19T15:48:42;6.35;;;3.63;;
21671;SDS011;10997;52.242;8.168;2022-08-19T15:53:42;5.00;;;3.70;;
21671;SDS011;10997;52.242;8.168;2022-08-19T15:58:43;3.45;;;3.15;;
21671;SDS011;10997;52.242;8.168;2022-08-19T16:04:03;6.13;;;3.53;;
21671;SDS011;10997;52.242;8.168;2022-08-19T16:09:23;4.78;;;4.00;;
21671;SDS011;10997;52.242;8.168;2022-08-19T16:14:33;5.18;;;4.50;;
21671;SDS011;10997;52.242;8.168;2022-08-19T16:19:34;5.33;;;4.83;;
21671;SDS011;10997;52.242;8.168;2022-08-19T16:24:35;8.25;;;4.97;;
21671;SDS011;10997;52.242;8.168;2022-08-19T16:29:36;6.68;;;4.80;;
21671;SDS011;10997;52.242;8.168;2022-08-19T16:34:37;5.47;;;4.97;;
21671;SDS011;10997;52.242;8.168;2022-08-19T16:39:39;8.57;;;5.20;;
21671;SDS011;10997;52.242;8.168;2022-08-19T16:44:42;6.03;;;5.43;;
21671;SDS011;10997;52.242;8.168;2022-08-19T16:49:44;6.57;;;5.97;;
21671;SDS011;10997;52.242;8.168;2022-08-19T16:54:45;8.10;;;5.70;;
21671;SDS011;10997;52.242;8.168;2022-08-19T16:59:47;8.82;;;5.40;;
21671;SDS011;10997;52.242;8.168;2022-08-19T17:04:48;8.27;;;4.90;;
21671;SDS011;10997;52.242;8.168;2022-08-19T17:09:50;8.50;;;5.32;;
21671;SDS011;10997;52.242;8.168;2022-08-19T17:14:51;6.88;;;4.90;;
21671;SDS011;10997;52.242;8.168;2022-08-19T17:19:52;6.25;;;5.32;;
21671;SDS011;10997;52.242;8.168;2022-08-19T17:24:53;12.82;;;6.05;;
21671;SDS011;10997;52.242;8.168;2022-08-19T17:29:53;8.32;;;5.38;;
21671;SDS011;10997;52.242;8.168;2022-08-19T17:34:54;6.78;;;5.50;;
21671;SDS011;10997;52.242;8.168;2022-08-19T17:39:55;7.32;;;5.25;;
21671;SDS011;10997;52.242;8.168;2022-08-19T17:44:56;6.68;;;5.97;;
21671;SDS011;10997;52.242;8.168;2022-08-19T17:49:59;7.70;;;6.13;;
21671;SDS011;10997;52.242;8.168;2022-08-19T17:55:00;8.48;;;6.25;;
21671;SDS011;10997;52.242;8.168;2022-08-19T18:00:01;6.90;;;6.20;;
21671;SDS011;10997;52.242;8.168;2022-08-19T18:05:02;6.57;;;5.80;;
21671;SDS011;10997;52.242;8.168;2022-08-19T18:10:04;6.85;;;5.80;;
21671;SDS011;10997;52.242;8.168;2022-08-19T18:15:05;8.90;;;6.28;;
21671;SDS011;10997;52.242;8.168;2022-08-19T18:20:08;11.15;;;6.50;;
21671;SDS011;10997;52.242;8.168;2022-08-19T18:25:13;10.65;;;6.43;;
21671;SDS011;10997;52.242;8.168;2022-08-19T18:30:18;6.88;;;6.00;;
21671;SDS011;10997;52.242;8.168;2022-08-19T18:35:20;8.40;;;5.97;;
21671;SDS011;10997;52.242;8.168;2022-08-19T18:40:28;13.45;;;6.32;;
21671;SDS011;10997;52.242;8.168;2022-08-19T18:45:48;6.40;;;5.70;;
21671;SDS011;10997;52.242;8.168;2022-08-19T18:51:08;7.53;;;5.90;;
21671;SDS011;10997;52.242;8.168;2022-08-19T18:56:09;7.93;;;5.90;;
21671;SDS011;10997;52.242;8.168;2022-08-19T19:01:16;6.85;;;5.80;;
21671;SDS011;10997;52.242;8.168;2022-08-19T19:06:26;6.05;;;5.50;;
21671;SDS011;10997;52.242;8.168;2022-08-19T19:11:34;6.60;;;5.82;;
21671;SDS011;10997;52.242;8.168;2022-08-19T19:16:40;6.60;;;5.85;;
21671;SDS011;10997;52.242;8.168;2022-08-19T19:21:45;9.55;;;7.68;;
21671;SDS011;10997;52.242;8.168;2022-08-19T19:26:48;7.97;;;7.18;;
21671;SDS011;10997;52.242;8.168;2022-08-19T19:31:51;7.70;;;6.90;;
21671;SDS011;10997;52.242;8.168;2022-08-19T19:36:52;13.50;;;10.95;;
21671;SDS011;10997;52.242;8.168;2022-08-19T19:41:52;11.00;;;7.45;;
21671;SDS011;10997;52.242;8.168;2022-08-19T19:46:53;8.95;;;6.80;;
21671;SDS011;10997;52.242;8.168;2022-08-19T19:51:58;8.52;;;7.22;;
21671;SDS011;10997;52.242;8.168;2022-08-19T19:56:59;9.52;;;8.38;;
21671;SDS011;10997;52.242;8.168;2022-08-19T20:02:00;13.95;;;7.97;;
21671;SDS011;10997;52.242;8.168;2022-08-19T20:07:00;9.02;;;8.02;;
21671;SDS011;10997;52.242;8.168;2022-08-19T20:12:01;10.80;;;9.35;;
21671;SDS011;10997;52.242;8.168;2022-08-19T20:17:03;17.17;;;11.18;;
21671;SDS011;10997;52.242;8.168;2022-08-19T20:22:04;15.00;;;11.55;;
21671;SDS011;10997;52.242;8.168;2022-08-19T20:27:05;13.27;;;11.20;;
21671;SDS011;10997;52.242;8.168;2022-08-19T20:32:06;15.13;;;11.15;;
21671;SDS011;10997;52.242;8.168;2022-08-19T20:37:08;17.35;;;12.80;;
21671;SDS011;10997;52.242;8.168;2022-08-19T20:42:08;16.48;;;13.80;;
21671;SDS011;10997;52.242;8.168;2022-08-19T20:47:09;19.55;;;15.95;;
21671;SDS011;10997;52.242;8.168;2022-08-19T20:52:10;19.02;;;15.43;;
21671;SDS011;10997;52.242;8.168;2022-08-19T20:57:11;22.08;;;16.02;;
21671;SDS011;10997;52.242;8.168;2022-08-19T21:02:11;20.17;;;15.95;;
21671;SDS011;10997;52.242;8.168;2022-08-19T21:07:13;20.80;;;16.38;;
21671;SDS011;10997;52.242;8.168;2022-08-19T21:12:14;22.45;;;16.88;;
21671;SDS011;10997;52.242;8.168;2022-08-19T21:17:15;23.90;;;19.20;;
21671;SDS011;10997;52.242;8.168;2022-08-19T21:22:15;24.48;;;19.20;;
21671;SDS011;10997;52.242;8.168;2022-08-19T21:27:17;24.35;;;19.42;;
21671;SDS011;10997;52.242;8.168;2022-08-19T21:32:18;28.10;;;21.00;;
21671;SDS011;10997;52.242;8.168;2022-08-19T21:37:19;27.58;;;21.00;;
21671;SDS011;10997;52.242;8.168;2022-08-19T21:42:21;25.42;;;22.00;;
21671;SDS011;10997;52.242;8.168;2022-08-19T21:47:23;28.60;;;22.55;;
21671;SDS011;10997;52.242;8.168;2022-08-19T21:52:24;31.85;;;23.17;;
21671;SDS011;10997;52.242;8.168;2022-08-19T21:57:25;31.98;;;22.23;;
21671;SDS011;10997;52.242;8.168;2022-08-19T22:02:26;30.48;;;23.15;;
21671;SDS011;10997;52.242;8.168;2022-08-19T22:07:27;31.35;;;23.40;;
21671;SDS011;10997;52.242;8.168;2022-08-19T22:12:29;30.90;;;22.40;;
21671;SDS011;10997;52.242;8.168;2022-08-19T22:17:31;29.40;;;22.00;;
21671;SDS011;10997;52.242;8.168;2022-08-19T22:22:32;26.42;;;19.55;;
21671;SDS011;10997;52.242;8.168;2022-08-19T22:27:34;24.25;;;21.38;;
21671;SDS011;10997;52.242;8.168;2022-08-19T22:32:35;25.77;;;21.38;;
21671;SDS011;10997;52.242;8.168;2022-08-19T22:37:36;26.67;;;20.48;;
21671;SDS011;10997;52.242;8.168;2022-08-19T22:42:37;33.30;;;23.67;;
21671;SDS011;10997;52.242;8.168;2022-08-19T22:47:38;32.72;;;25.42;;
21671;SDS011;10997;52.242;8.168;2022-08-19T22:52:39;32.38;;;23.45;;
21671;SDS011;10997;52.242;8.168;2022-08-19T22:57:42;31.48;;;23.73;;
21671;SDS011;10997;52.242;8.168;2022-08-19T23:02:44;34.03;;;24.88;;
21671;SDS011;10997;52.242;8.168;2022-08-19T23:07:45;31.50;;;24.10;;
21671;SDS011;10997;52.242;8.168;2022-08-19T23:12:46;33.80;;;25.73;;
21671;SDS011;10997;52.242;8.168;2022-08-19T23:17:48;36.47;;;25.83;;
21671;SDS011;10997;52.242;8.168;2022-08-19T23:22:49;33.50;;;25.42;;
21671;SDS011;10997;52.242;8.168;2022-08-19T23:27:52;38.35;;;26.73;;
21671;SDS011;10997;52.242;8.168;2022-08-19T23:33:13;35.28;;;27.58;;
21671;SDS011;10997;52.242;8.168;2022-08-19T23:38:25;35.70;;;26.88;;
21671;SDS011;10997;52.242;8.168;2022-08-19T23:43:28;39.65;;;28.27;;
21671;SDS011;10997;52.242;8.168;2022-08-19T23:48:30;41.80;;;29.48;;
21671;SDS011;10997;52.242;8.168;2022-08-19T23:53:32;41.55;;;30.30;;
21671;SDS011;10997;52.242;8.168;2022-08-19T23:58:35;42.53;;;31.38;;
